sensor_id;sensor_type;location;lat;lon;timestamp;pressure;altitude;pressure_sealevel;temperature;humidity
38253;BME280;24785;52.372;20.672;2023-04-03T00:05:20;101336.47;;;0.31;79.74
38253;BME280;24785;52.372;20.672;2023-04-03T00:15:21;101351.13;;;0.19;79.63
38253;BME280;24785;52.372;20.672;2023-04-03T00:25:22;101359.59;;;0.15;79.12
38253;BME280;24785;52.372;20.672;2023-04-03T00:35:23;101355.22;;;0.07;78.57
38253;BME280;24785;52.372;20.672;2023-04-03T00:55:25;101363.63;;;-0.27;79.97
38253;BME280;24785;52.372;20.672;2023-04-03T01:05:26;101374.53;;;-0.30;79.32
38253;BME280;24785;52.372;20.672;2023-04-03T01:15:28;101397.38;;;-0.45;80.13
38253;BME280;24785;52.372;20.672;2023-04-03T01:25:40;101409.66;;;-0.60;80.34
38253;BME280;24785;52.372;20.672;2023-04-03T01:35:41;101418.16;;;-0.73;81.23
38253;BME280;24785;52.372;20.672;2023-04-03T01:45:42;101431.19;;;-0.80;81.06
38253;BME280;24785;52.372;20.672;2023-04-03T01:55:43;101417.63;;;-1.00;82.17
38253;BME280;24785;52.372;20.672;2023-04-03T02:05:44;101429.50;;;-1.04;81.54
38253;BME280;24785;52.372;20.672;2023-04-03T02:15:45;101450.50;;;-1.27;83.40
38253;BME280;24785;52.372;20.672;2023-04-03T02:25:46;101447.78;;;-1.41;84.07
38253;BME280;24785;52.372;20.672;2023-04-03T02:35:53;101457.78;;;-1.45;85.10
38253;BME280;24785;52.372;20.672;2023-04-03T02:45:54;101456.53;;;-1.65;86.08
38253;BME280;24785;52.372;20.672;2023-04-03T02:55:55;101461.13;;;-1.67;85.73
38253;BME280;24785;52.372;20.672;2023-04-03T03:06:11;101473.31;;;-1.74;86.58
38253;BME280;24785;52.372;20.672;2023-04-03T03:16:13;101472.84;;;-1.86;86.87
38253;BME280;24785;52.372;20.672;2023-04-03T03:26:14;101465.63;;;-2.00;88.43
38253;BME280;24785;52.372;20.672;2023-04-03T03:36:15;101490.22;;;-1.77;87.33
38253;BME280;24785;52.372;20.672;2023-04-03T03:46:16;101495.97;;;-1.90;88.53
38253;BME280;24785;52.372;20.672;2023-04-03T03:56:17;101494.03;;;-1.87;88.42
38253;BME280;24785;52.372;20.672;2023-04-03T04:06:17;101497.66;;;-1.88;88.07
38253;BME280;24785;52.372;20.672;2023-04-03T04:16:18;101502.22;;;-1.91;88.19
38253;BME280;24785;52.372;20.672;2023-04-03T04:26:19;101496.97;;;-1.99;88.88
38253;BME280;24785;52.372;20.672;2023-04-03T04:36:20;101498.78;;;-1.99;89.55
38253;BME280;24785;52.372;20.672;2023-04-03T04:46:21;101506.66;;;-1.83;87.89
38253;BME280;24785;52.372;20.672;2023-04-03T04:56:22;101520.28;;;-1.71;86.90
38253;BME280;24785;52.372;20.672;2023-04-03T05:06:23;101527.97;;;-1.62;85.87
38253;BME280;24785;52.372;20.672;2023-04-03T05:16:24;101546.72;;;-1.65;86.08
38253;BME280;24785;52.372;20.672;2023-04-03T05:26:26;101546.41;;;-1.78;85.83
38253;BME280;24785;52.372;20.672;2023-04-03T05:36:26;101556.25;;;-1.64;85.85
38253;BME280;24785;52.372;20.672;2023-04-03T05:46:27;101564.44;;;-1.34;85.19
38253;BME280;24785;52.372;20.672;2023-04-03T05:56:28;101572.63;;;-1.29;83.76
38253;BME280;24785;52.372;20.672;2023-04-03T06:06:49;101584.94;;;-1.21;83.06
38253;BME280;24785;52.372;20.672;2023-04-03T06:16:52;101586.97;;;-0.84;82.89
38253;BME280;24785;52.372;20.672;2023-04-03T06:26:53;101600.41;;;-0.71;82.03
38253;BME280;24785;52.372;20.672;2023-04-03T06:36:54;101612.88;;;-0.65;80.22
38253;BME280;24785;52.372;20.672;2023-04-03T06:46:54;101618.78;;;-0.63;79.79
38253;BME280;24785;52.372;20.672;2023-04-03T06:56:55;101611.09;;;-0.34;79.26
38253;BME280;24785;52.372;20.672;2023-04-03T07:06:56;101629.28;;;-0.16;77.89
38253;BME280;24785;52.372;20.672;2023-04-03T07:16:57;101631.81;;;0.23;78.33
38253;BME280;24785;52.372;20.672;2023-04-03T07:26:58;101642.31;;;0.31;76.39
38253;BME280;24785;52.372;20.672;2023-04-03T07:36:58;101640.03;;;0.28;76.11
38253;BME280;24785;52.372;20.672;2023-04-03T07:47:00;101637.25;;;0.45;73.64
38253;BME280;24785;52.372;20.672;2023-04-03T07:57:01;101649.97;;;0.64;73.80
38253;BME280;24785;52.372;20.672;2023-04-03T08:07:02;101632.97;;;0.81;69.67
38253;BME280;24785;52.372;20.672;2023-04-03T08:17:03;101643.03;;;1.01;69.73
38253;BME280;24785;52.372;20.672;2023-04-03T08:27:05;101644.69;;;1.02;66.78
38253;BME280;24785;52.372;20.672;2023-04-03T08:37:06;101664.41;;;1.79;66.64
38253;BME280;24785;52.372;20.672;2023-04-03T08:47:23;101664.53;;;1.56;64.36
38253;BME280;24785;52.372;20.672;2023-04-03T08:57:39;101655.47;;;1.80;63.51
38253;BME280;24785;52.372;20.672;2023-04-03T09:07:47;101653.53;;;1.89;62.04
38253;BME280;24785;52.372;20.672;2023-04-03T09:28:09;101653.16;;;2.77;60.90
38253;BME280;24785;52.372;20.672;2023-04-03T09:58:42;101667.78;;;2.95;57.25
38253;BME280;24785;52.372;20.672;2023-04-03T10:08:58;101665.44;;;3.47;57.02
38253;BME280;24785;52.372;20.672;2023-04-03T10:19:09;101652.81;;;3.15;54.44
38253;BME280;24785;52.372;20.672;2023-04-03T10:29:35;101662.94;;;3.05;54.86
38253;BME280;24785;52.372;20.672;2023-04-03T10:39:46;101651.63;;;3.59;53.73
38253;BME280;24785;52.372;20.672;2023-04-03T10:50:21;101635.03;;;3.02;52.94
38253;BME280;24785;52.372;20.672;2023-04-03T11:00:35;101618.41;;;4.37;52.64
38253;BME280;24785;52.372;20.672;2023-04-03T11:10:42;101625.44;;;3.36;50.56
38253;BME280;24785;52.372;20.672;2023-04-03T11:21:11;101617.31;;;3.98;49.15
38253;BME280;24785;52.372;20.672;2023-04-03T11:41:30;101594.66;;;3.96;48.41
38253;BME280;24785;52.372;20.672;2023-04-03T11:51:42;101584.50;;;4.26;46.33
38253;BME280;24785;52.372;20.672;2023-04-03T12:01:54;101584.69;;;4.04;48.50
38253;BME280;24785;52.372;20.672;2023-04-03T12:11:56;101584.88;;;4.16;47.44
38253;BME280;24785;52.372;20.672;2023-04-03T12:52:52;101563.88;;;4.61;47.67
38253;BME280;24785;52.372;20.672;2023-04-03T13:02:55;101569.19;;;4.48;47.64
38253;BME280;24785;52.372;20.672;2023-04-03T13:12:58;101572.88;;;4.27;46.82
38253;BME280;24785;52.372;20.672;2023-04-03T13:23:08;101569.19;;;4.34;45.45
38253;BME280;24785;52.372;20.672;2023-04-03T13:33:21;101570.41;;;4.25;46.38
38253;BME280;24785;52.372;20.672;2023-04-03T13:43:27;101562.88;;;4.42;45.32
38253;BME280;24785;52.372;20.672;2023-04-03T13:53:30;101557.97;;;4.39;45.43
38253;BME280;24785;52.372;20.672;2023-04-03T14:03:41;101577.53;;;4.11;46.30
38253;BME280;24785;52.372;20.672;2023-04-03T14:13:43;101561.44;;;4.39;46.49
38253;BME280;24785;52.372;20.672;2023-04-03T14:23:44;101562.44;;;4.25;45.81
38253;BME280;24785;52.372;20.672;2023-04-03T14:33:46;101560.19;;;4.02;46.74
38253;BME280;24785;52.372;20.672;2023-04-03T14:43:48;101568.75;;;4.04;47.40
38253;BME280;24785;52.372;20.672;2023-04-03T14:53:49;101561.00;;;3.96;47.42
38253;BME280;24785;52.372;20.672;2023-04-03T15:03:50;101555.50;;;3.98;46.15
38253;BME280;24785;52.372;20.672;2023-04-03T15:13:51;101559.56;;;3.94;46.89
38253;BME280;24785;52.372;20.672;2023-04-03T15:23:52;101556.53;;;4.03;47.94
38253;BME280;24785;52.372;20.672;2023-04-03T15:33:52;101563.03;;;3.88;46.81
38253;BME280;24785;52.372;20.672;2023-04-03T15:43:53;101565.81;;;3.66;47.58
38253;BME280;24785;52.372;20.672;2023-04-03T15:53:54;101583.13;;;3.62;49.12
38253;BME280;24785;52.372;20.672;2023-04-03T16:03:55;101572.09;;;3.45;49.13
38253;BME280;24785;52.372;20.672;2023-04-03T16:13:56;101583.25;;;3.34;50.91
38253;BME280;24785;52.372;20.672;2023-04-03T16:23:58;101584.41;;;3.25;50.38
38253;BME280;24785;52.372;20.672;2023-04-03T16:34:00;101593.94;;;3.13;50.89
38253;BME280;24785;52.372;20.672;2023-04-03T16:44:01;101585.94;;;3.06;51.24
38253;BME280;24785;52.372;20.672;2023-04-03T16:54:02;101605.03;;;2.95;52.00
38253;BME280;24785;52.372;20.672;2023-04-03T17:04:03;101609.69;;;2.87;51.58
38253;BME280;24785;52.372;20.672;2023-04-03T17:14:04;101615.03;;;2.72;53.24
38253;BME280;24785;52.372;20.672;2023-04-03T17:24:06;101613.06;;;2.52;54.94
38253;BME280;24785;52.372;20.672;2023-04-03T17:34:09;101631.22;;;2.56;55.17
38253;BME280;24785;52.372;20.672;2023-04-03T17:44:12;101633.75;;;2.42;55.53
38253;BME280;24785;52.372;20.672;2023-04-03T17:54:13;101633.41;;;2.31;57.14
38253;BME280;24785;52.372;20.672;2023-04-03T18:04:15;101650.19;;;2.16;58.10
38253;BME280;24785;52.372;20.672;2023-04-03T18:14:21;101642.63;;;2.13;57.69
38253;BME280;24785;52.372;20.672;2023-04-03T18:24:24;101659.34;;;1.99;58.77
38253;BME280;24785;52.372;20.672;2023-04-03T18:34:26;101654.25;;;1.98;58.84
38253;BME280;24785;52.372;20.672;2023-04-03T18:44:30;101657.72;;;1.98;59.49
38253;BME280;24785;52.372;20.672;2023-04-03T18:54:32;101663.75;;;1.77;60.95
38253;BME280;24785;52.372;20.672;2023-04-03T19:04:36;101670.38;;;1.52;62.05
38253;BME280;24785;52.372;20.672;2023-04-03T19:14:37;101668.72;;;1.36;63.47
38253;BME280;24785;52.372;20.672;2023-04-03T19:24:38;101665.19;;;1.44;63.42
38253;BME280;24785;52.372;20.672;2023-04-03T19:34:40;101668.81;;;1.28;63.27
38253;BME280;24785;52.372;20.672;2023-04-03T19:44:40;101678.38;;;1.29;63.53
38253;BME280;24785;52.372;20.672;2023-04-03T19:54:42;101679.38;;;1.28;63.14
38253;BME280;24785;52.372;20.672;2023-04-03T20:04:43;101684.09;;;1.03;63.27
38253;BME280;24785;52.372;20.672;2023-04-03T20:14:44;101680.75;;;0.86;63.34
38253;BME280;24785;52.372;20.672;2023-04-03T20:24:46;101695.09;;;0.69;64.31
38253;BME280;24785;52.372;20.672;2023-04-03T20:34:47;101686.34;;;0.54;64.91
38253;BME280;24785;52.372;20.672;2023-04-03T20:44:48;101703.34;;;0.43;65.11
38253;BME280;24785;52.372;20.672;2023-04-03T20:54:49;101689.41;;;0.35;66.75
38253;BME280;24785;52.372;20.672;2023-04-03T21:04:53;101693.28;;;0.24;67.87
38253;BME280;24785;52.372;20.672;2023-04-03T21:25:37;101692.03;;;0.12;69.42
38253;BME280;24785;52.372;20.672;2023-04-03T21:35:37;101693.09;;;0.03;70.27
38253;BME280;24785;52.372;20.672;2023-04-03T21:45:38;101695.28;;;-0.09;71.06
38253;BME280;24785;52.372;20.672;2023-04-03T21:55:40;101701.06;;;-0.14;71.28
38253;BME280;24785;52.372;20.672;2023-04-03T22:05:41;101705.59;;;-0.30;72.14
38253;BME280;24785;52.372;20.672;2023-04-03T22:15:41;101697.88;;;-0.40;73.37
38253;BME280;24785;52.372;20.672;2023-04-03T22:26:05;101702.84;;;-0.45;73.59
38253;BME280;24785;52.372;20.672;2023-04-03T22:36:09;101693.81;;;-0.59;74.33
38253;BME280;24785;52.372;20.672;2023-04-03T22:46:10;101704.22;;;-0.74;75.96
38253;BME280;24785;52.372;20.672;2023-04-03T22:56:11;101693.22;;;-0.77;76.19
38253;BME280;24785;52.372;20.672;2023-04-03T23:06:13;101680.41;;;-0.88;76.31
38253;BME280;24785;52.372;20.672;2023-04-03T23:16:15;101682.53;;;-1.00;78.46
38253;BME280;24785;52.372;20.672;2023-04-03T23:26:16;101677.63;;;-1.11;79.40
38253;BME280;24785;52.372;20.672;2023-04-03T23:36:17;101670.25;;;-1.24;80.25
38253;BME280;24785;52.372;20.672;2023-04-03T23:46:20;101665.00;;;-1.24;81.46
38253;BME280;24785;52.372;20.672;2023-04-03T23:56:21;101664.69;;;-1.37;82.89
